Time;durP1;ratioP1;P1;durP2;ratioP2;P2;SDS_P1;SDS_P2;PMS_P1;PMS_P2;Temp;Humidity;BMP_temperature;BMP_pressure;BME280_temperature;BME280_humidity;BME280_pressure;Samples;Min_cycle;Max_cycle;Signal;HPM_P1;HPM_P2
2021/06/26 00:00:58;;;;;;;6.28;3.30;;;17.50;84.00;;;;;;5052666;28;20421;-74
2021/06/26 00:03:26;;;;;;;7.45;3.30;;;17.50;84.40;;;;;;5052542;28;20044;-73
2021/06/26 00:05:53;;;;;;;;;;;17.50;84.20;;;;;;5054671;28;20067;-73
2021/06/26 00:08:20;;;;;;;8.57;3.17;;;17.40;84.90;;;;;;5052400;28;19952;-73
2021/06/26 00:10:46;;;;;;;5.00;3.33;;;17.30;85.20;;;;;;5034590;28;20037;-75
2021/06/26 00:13:13;;;;;;;11.13;4.07;;;17.30;85.20;;;;;;5052124;28;20040;-73
2021/06/26 00:15:38;;;;;;;6.75;3.65;;;17.20;85.80;;;;;;5051675;28;20064;-73
2021/06/26 00:18:05;;;;;;;6.72;3.15;;;17.10;86.30;;;;;;5034597;28;20053;-73
2021/06/26 00:20:31;;;;;;;7.53;4.00;;;17.20;86.80;;;;;;5053767;28;20029;-72
2021/06/26 00:22:56;;;;;;;8.90;3.70;;;17.20;87.00;;;;;;5034079;28;20037;-74
2021/06/26 00:25:23;;;;;;;6.70;3.67;;;17.10;87.40;;;;;;5034818;28;20045;-73
2021/06/26 00:27:50;;;;;;;4.97;3.30;;;17.10;88.10;;;;;;5034233;28;20040;-72
2021/06/26 00:30:17;;;;;;;6.03;3.72;;;17.20;88.30;;;;;;5051576;28;20482;-73
2021/06/26 00:32:43;;;;;;;7.88;4.07;;;17.10;88.60;;;;;;5053634;28;20021;-72
2021/06/26 00:35:10;;;;;;;7.30;3.60;;;17.10;89.10;;;;;;5052013;28;20037;-75
2021/06/26 00:37:36;;;;;;;5.97;3.60;;;17.10;89.50;;;;;;5052020;28;20064;-73
2021/06/26 00:40:03;;;;;;;8.85;4.88;;;17.10;89.90;;;;;;5034307;28;20126;-73
2021/06/26 00:42:34;;;;;;;8.23;3.67;;;17.20;90.10;;;;;;5051495;28;20356;-74
2021/06/26 00:44:59;;;;;;;7.03;3.60;;;17.10;90.20;;;;;;5053194;28;20355;-73
2021/06/26 00:47:26;;;;;;;5.95;3.78;;;17.20;90.30;;;;;;5051388;28;20029;-73
2021/06/26 00:49:51;;;;;;;7.80;4.13;;;17.20;90.40;;;;;;5051043;28;20191;-72
2021/06/26 00:52:17;;;;;;;6.95;4.38;;;17.30;90.50;;;;;;5033776;28;20127;-73
2021/06/26 00:54:43;;;;;;;8.82;4.25;;;17.40;90.60;;;;;;5051837;28;20029;-72
2021/06/26 00:57:09;;;;;;;6.53;3.67;;;17.30;90.70;;;;;;5033814;28;20051;-73
2021/06/26 00:59:35;;;;;;;9.45;3.22;;;17.40;91.00;;;;;;5053148;28;20039;-73
2021/06/26 01:02:03;;;;;;;5.32;3.20;;;17.40;91.00;;;;;;5051333;28;20055;-72
2021/06/26 01:04:28;;;;;;;8.13;3.80;;;17.30;91.30;;;;;;5051727;28;20049;-72
2021/06/26 01:06:55;;;;;;;6.18;4.53;;;17.30;91.50;;;;;;5051340;28;20032;-72
2021/06/26 01:09:20;;;;;;;9.30;4.25;;;17.30;91.50;;;;;;5051562;28;20064;-72
2021/06/26 01:11:46;;;;;;;4.63;3.40;;;17.40;91.60;;;;;;5052800;28;20045;-73
2021/06/26 01:14:12;;;;;;;9.85;4.10;;;17.40;91.70;;;;;;5051168;28;20051;-73
2021/06/26 01:16:37;;;;;;;6.38;3.45;;;17.40;91.90;;;;;;5051096;28;20041;-72
2021/06/26 01:19:03;;;;;;;6.40;3.70;;;17.40;92.10;;;;;;5051099;28;20025;-73
2021/06/26 01:21:29;;;;;;;5.43;3.65;;;17.40;92.10;;;;;;5050699;28;20033;-74
2021/06/26 01:23:55;;;;;;;7.07;4.00;;;17.50;92.20;;;;;;5035013;28;20507;-74
2021/06/26 01:26:24;;;;;;;7.63;3.80;;;17.50;92.30;;;;;;5051388;28;20052;-74
2021/06/26 01:28:50;;;;;;;5.63;3.40;;;17.50;92.50;;;;;;5050717;28;20049;-74
2021/06/26 01:31:16;;;;;;;4.75;3.45;;;17.50;92.40;;;;;;5050562;28;20044;-74
2021/06/26 01:33:41;;;;;;;5.65;3.50;;;17.40;92.70;;;;;;5033062;28;20044;-74
2021/06/26 01:36:07;;;;;;;6.57;3.22;;;17.50;92.90;;;;;;5039530;28;20511;-72
2021/06/26 01:38:33;;;;;;;5.80;3.42;;;17.50;92.80;;;;;;5032497;28;20499;-73
2021/06/26 01:40:58;;;;;;;13.05;3.97;;;17.40;92.80;;;;;;5030715;28;20050;-75
2021/06/26 01:43:24;;;;;;;7.05;3.33;;;17.50;93.00;;;;;;5031129;28;20037;-73
2021/06/26 01:45:49;;;;;;;6.25;3.53;;;17.40;93.20;;;;;;5030625;28;20098;-73
2021/06/26 01:48:15;;;;;;;7.53;3.90;;;17.50;93.20;;;;;;5030471;28;20026;-73
2021/06/26 01:50:41;;;;;;;4.80;3.55;;;17.50;93.30;;;;;;5031984;28;20021;-72
2021/06/26 01:53:06;;;;;;;6.70;3.88;;;17.40;93.40;;;;;;5030547;28;20108;-72
2021/06/26 01:55:32;;;;;;;6.43;3.85;;;17.40;93.60;;;;;;5030078;28;20132;-74
2021/06/26 01:57:58;;;;;;;7.43;3.40;;;17.40;93.70;;;;;;5030343;28;20041;-73
2021/06/26 02:00:24;;;;;;;5.75;3.50;;;17.40;93.70;;;;;;5012859;28;20045;-73
2021/06/26 02:02:51;;;;;;;7.80;4.60;;;17.50;93.80;;;;;;5014600;28;20025;-73
2021/06/26 02:05:18;;;;;;;8.20;3.90;;;17.50;93.90;;;;;;5029935;28;20034;-75
2021/06/26 02:07:47;;;;;;;4.88;3.33;;;17.50;94.00;;;;;;5030190;28;20049;-73
2021/06/26 02:10:14;;;;;;;4.95;3.35;;;17.40;93.90;;;;;;5030164;28;20123;-73
2021/06/26 02:12:40;;;;;;;4.97;3.72;;;17.40;93.90;;;;;;5012301;28;20556;-74
2021/06/26 02:15:07;;;;;;;5.40;3.72;;;17.50;93.80;;;;;;5030483;28;20025;-72
2021/06/26 02:17:33;;;;;;;4.93;3.75;;;17.50;93.80;;;;;;5031386;28;20453;-73
2021/06/26 02:19:58;;;;;;;9.00;4.45;;;17.50;93.80;;;;;;5012442;28;20120;-74
2021/06/26 02:22:24;;;;;;;6.30;3.83;;;17.50;93.80;;;;;;5030153;28;20042;-74
2021/06/26 02:24:49;;;;;;;11.07;3.83;;;17.40;93.90;;;;;;5029881;28;20120;-73
2021/06/26 02:27:15;;;;;;;7.43;4.22;;;17.40;94.00;;;;;;5029834;28;20351;-75
2021/06/26 02:29:40;;;;;;;6.50;3.90;;;17.40;94.10;;;;;;5031334;28;20049;-74
2021/06/26 02:32:06;;;;;;;6.43;4.20;;;17.40;94.20;;;;;;5012213;28;20031;-73
2021/06/26 02:34:32;;;;;;;6.22;3.88;;;17.40;94.20;;;;;;5012619;28;20543;-73
2021/06/26 02:36:58;;;;;;;7.18;3.85;;;17.40;94.30;;;;;;5029919;28;20041;-73
2021/06/26 02:39:24;;;;;;;8.55;3.85;;;17.40;94.30;;;;;;5029598;28;20057;-73
2021/06/26 02:41:50;;;;;;;7.03;4.18;;;17.40;94.40;;;;;;5031017;28;20376;-73
2021/06/26 02:44:15;;;;;;;11.27;4.38;;;17.40;94.60;;;;;;5029457;28;20057;-74
2021/06/26 02:46:41;;;;;;;6.90;4.05;;;17.30;94.70;;;;;;5029397;28;20688;-74
2021/06/26 02:49:07;;;;;;;8.20;4.10;;;17.40;94.70;;;;;;5029379;28;20033;-74
2021/06/26 02:51:32;;;;;;;9.48;4.05;;;17.20;94.80;;;;;;5029508;28;20045;-75
2021/06/26 02:53:58;;;;;;;7.65;4.38;;;17.30;94.90;;;;;;5031065;28;20026;-74
2021/06/26 02:56:24;;;;;;;5.97;4.30;;;17.30;95.00;;;;;;5029809;28;20049;-73
2021/06/26 02:58:49;;;;;;;6.88;3.80;;;17.30;95.10;;;;;;5029530;28;20041;-73
2021/06/26 03:01:15;;;;;;;10.88;4.15;;;17.20;95.30;;;;;;5029403;28;20033;-73
2021/06/26 03:03:41;;;;;;;7.72;3.80;;;17.20;95.20;;;;;;5029591;28;20029;-74
2021/06/26 03:06:06;;;;;;;6.63;4.32;;;17.20;95.50;;;;;;5029381;28;20068;-72
2021/06/26 03:08:32;;;;;;;6.07;4.40;;;17.20;95.50;;;;;;5031262;28;20021;-72
2021/06/26 03:10:57;;;;;;;7.43;4.43;;;17.20;95.60;;;;;;5029279;28;20040;-73
2021/06/26 03:13:23;;;;;;;6.60;4.60;;;17.10;95.70;;;;;;5030436;28;20037;-74
2021/06/26 03:15:49;;;;;;;6.15;4.60;;;17.10;95.80;;;;;;5033369;28;20551;-73
2021/06/26 03:18:14;;;;;;;6.75;4.55;;;17.10;95.80;;;;;;5024887;28;20022;-73
2021/06/26 03:20:40;;;;;;;6.22;4.53;;;17.10;95.90;;;;;;5035125;28;20029;-72
2021/06/26 03:23:07;;;;;;;10.80;4.85;;;17.10;96.00;;;;;;5015861;28;20038;-73
2021/06/26 03:25:33;;;;;;;8.32;5.35;;;17.10;96.10;;;;;;5015626;28;20061;-73
2021/06/26 03:27:58;;;;;;;8.70;4.80;;;17.10;96.20;;;;;;5033213;28;20411;-73
2021/06/26 03:30:24;;;;;;;6.95;4.85;;;17.10;96.20;;;;;;5033109;28;20045;-73
2021/06/26 03:32:50;;;;;;;29.70;5.53;;;17.20;96.10;;;;;;5017213;28;20085;-73
2021/06/26 03:35:16;;;;;;;10.68;5.65;;;17.10;96.20;;;;;;5032980;28;20057;-74
2021/06/26 03:37:42;;;;;;;8.85;4.60;;;17.10;96.30;;;;;;5033168;28;20069;-73
2021/06/26 03:40:09;;;;;;;8.27;5.50;;;17.20;96.40;;;;;;5033061;28;20572;-74
2021/06/26 03:42:34;;;;;;;13.52;6.13;;;17.20;96.30;;;;;;5015556;28;20137;-75
2021/06/26 03:45:00;;;;;;;8.23;5.03;;;17.20;96.30;;;;;;5016991;28;20112;-74
2021/06/26 03:47:28;;;;;;;8.80;5.38;;;17.20;96.40;;;;;;5032843;28;20026;-74
2021/06/26 03:49:53;;;;;;;9.27;5.97;;;17.20;96.30;;;;;;5014928;28;20037;-73
2021/06/26 03:52:19;;;;;;;13.93;6.25;;;17.30;96.40;;;;;;5032721;28;20136;-75
2021/06/26 03:54:44;;;;;;;7.53;5.35;;;17.30;96.40;;;;;;5032772;28;20045;-73
2021/06/26 03:57:10;;;;;;;10.02;5.15;;;17.40;96.60;;;;;;5032767;28;20025;-74
2021/06/26 03:59:36;;;;;;;9.88;5.35;;;17.40;96.60;;;;;;5034334;28;20034;-72
2021/06/26 04:02:06;;;;;;;11.27;5.57;;;17.40;96.70;;;;;;5032381;28;20033;-73
2021/06/26 04:04:33;;;;;;;9.30;5.13;;;17.40;96.70;;;;;;5032406;28;20113;-72
2021/06/26 04:06:58;;;;;;;8.32;5.40;;;17.40;96.70;;;;;;5032197;28;20423;-74
2021/06/26 04:09:24;;;;;;;8.15;5.63;;;17.40;96.70;;;;;;5014712;28;20251;-74
2021/06/26 04:11:50;;;;;;;7.50;5.25;;;17.50;96.80;;;;;;5016369;28;20714;-73
2021/06/26 04:14:15;;;;;;;11.27;5.53;;;17.50;96.70;;;;;;5032462;28;20060;-76
2021/06/26 04:16:41;;;;;;;9.85;5.43;;;17.60;96.90;;;;;;5032122;28;20045;-74
2021/06/26 04:19:07;;;;;;;7.78;4.63;;;17.70;96.80;;;;;;5032344;28;20053;-73
2021/06/26 04:21:32;;;;;;;8.20;4.88;;;17.70;96.80;;;;;;5032234;28;20345;-74
2021/06/26 04:23:58;;;;;;;7.47;4.10;;;17.80;96.70;;;;;;5033782;28;20293;-76
2021/06/26 04:26:23;;;;;;;6.05;4.45;;;17.80;96.80;;;;;;5031109;28;20410;-73
2021/06/26 04:28:50;;;;;;;6.10;4.00;;;17.80;96.90;;;;;;5032051;28;20430;-73
2021/06/26 04:31:15;;;;;;;7.22;3.97;;;17.90;97.00;;;;;;5031858;28;20473;-73
2021/06/26 04:33:41;;;;;;;6.47;4.57;;;17.90;97.00;;;;;;5031750;28;20120;-74
2021/06/26 04:36:12;;;;;;;5.70;3.83;;;18.00;97.10;;;;;;5031812;28;20021;-72
2021/06/26 04:38:37;;;;;;;9.02;4.20;;;18.00;97.10;;;;;;5033631;28;20045;-73
2021/06/26 04:41:03;;;;;;;5.20;4.03;;;18.10;97.00;;;;;;5032173;28;20045;-74
2021/06/26 04:43:29;;;;;;;5.45;3.90;;;18.10;97.20;;;;;;5031636;28;20033;-75
2021/06/26 04:45:54;;;;;;;5.90;4.22;;;18.10;97.20;;;;;;5031563;28;20084;-75
2021/06/26 04:48:20;;;;;;;5.82;3.65;;;18.10;97.40;;;;;;5031884;28;20455;-74
2021/06/26 04:50:47;;;;;;;8.73;4.35;;;18.10;97.40;;;;;;5033279;28;20021;-75
2021/06/26 04:53:13;;;;;;;5.63;4.15;;;18.20;97.30;;;;;;5031644;28;20033;-74
2021/06/26 04:55:39;;;;;;;7.82;4.18;;;18.30;97.30;;;;;;5031614;28;20064;-76
2021/06/26 04:58:04;;;;;;;6.78;3.30;;;18.30;97.40;;;;;;5031374;28;20361;-75
2021/06/26 05:00:30;;;;;;;6.30;4.07;;;18.30;97.30;;;;;;5031239;28;20452;-75
2021/06/26 05:02:55;;;;;;;6.38;3.85;;;18.30;97.40;;;;;;5033067;28;20033;-74
2021/06/26 05:05:21;;;;;;;7.45;3.50;;;18.30;97.40;;;;;;5031485;28;20096;-73
2021/06/26 05:07:47;;;;;;;6.57;3.90;;;18.40;97.40;;;;;;5031347;28;20106;-74
2021/06/26 05:10:13;;;;;;;6.80;4.30;;;18.50;97.30;;;;;;5031385;28;20047;-75
2021/06/26 05:12:45;;;;;;;9.57;3.90;;;18.60;97.40;;;;;;5031142;28;20041;-75
2021/06/26 05:15:11;;;;;;;5.95;3.80;;;18.60;97.40;;;;;;5030925;28;20026;-74
2021/06/26 05:17:37;;;;;;;6.70;4.30;;;18.70;97.30;;;;;;5032713;28;20021;-74
2021/06/26 05:20:04;;;;;;;9.68;4.30;;;18.70;97.40;;;;;;5031215;28;20048;-74
2021/06/26 05:22:30;;;;;;;5.45;3.33;;;18.80;97.40;;;;;;5030964;28;20064;-74
2021/06/26 05:24:55;;;;;;;8.07;3.78;;;18.80;97.40;;;;;;5030939;28;20535;-71
2021/06/26 05:27:21;;;;;;;7.70;3.70;;;18.80;97.40;;;;;;5031022;28;20045;-73
2021/06/26 05:29:48;;;;;;;6.03;4.30;;;18.80;97.40;;;;;;5032509;28;20049;-74
2021/06/26 05:32:13;;;;;;;5.32;3.72;;;18.90;97.40;;;;;;5030917;28;20681;-73
2021/06/26 05:34:39;;;;;;;6.50;3.55;;;19.00;97.30;;;;;;5030807;28;20128;-72
2021/06/26 05:37:05;;;;;;;8.35;4.68;;;19.10;97.20;;;;;;5030731;28;20281;-73
2021/06/26 05:39:30;;;;;;;8.68;4.45;;;19.20;97.20;;;;;;5031369;28;20094;-76
2021/06/26 05:41:56;;;;;;;10.60;5.45;;;19.20;97.20;;;;;;5032509;28;20030;-74
2021/06/26 05:44:22;;;;;;;11.88;5.82;;;19.30;97.10;;;;;;5030872;28;20037;-74
2021/06/26 05:46:47;;;;;;;6.32;3.90;;;19.40;97.00;;;;;;5030704;28;20030;-73
2021/06/26 05:49:13;;;;;;;10.40;4.88;;;19.40;97.20;;;;;;5030628;28;20383;-75
2021/06/26 05:51:38;;;;;;;13.43;6.40;;;19.50;97.20;;;;;;5030483;28;20049;-75
2021/06/26 05:54:04;;;;;;;9.80;7.20;;;19.50;96.80;;;;;;5030556;28;20041;-75
2021/06/26 05:56:30;;;;;;;13.00;8.13;;;19.60;96.50;;;;;;5032198;28;20037;-73
2021/06/26 05:58:56;;;;;;;14.00;10.13;;;19.70;96.10;;;;;;5013438;28;20120;-72
2021/06/26 06:01:24;;;;;;;13.13;8.43;;;19.80;95.40;;;;;;5030577;28;20029;-74
2021/06/26 06:03:49;;;;;;;12.98;8.90;;;19.80;95.30;;;;;;5030449;28;20076;-74
2021/06/26 06:06:15;;;;;;;18.45;10.20;;;19.90;95.10;;;;;;5030715;28;20099;-73
2021/06/26 06:08:40;;;;;;;13.45;8.25;;;20.00;95.00;;;;;;5031833;28;20021;-74
2021/06/26 06:11:06;;;;;;;15.27;9.15;;;20.10;95.00;;;;;;5030628;28;20439;-74
2021/06/26 06:13:32;;;;;;;19.15;10.00;;;20.10;94.40;;;;;;5030498;28;20041;-73
2021/06/26 06:15:58;;;;;;;13.15;9.07;;;20.20;93.80;;;;;;5030171;28;20045;-72
2021/06/26 06:18:24;;;;;;;17.27;8.88;;;20.30;93.50;;;;;;5030314;28;20030;-73
2021/06/26 06:20:49;;;;;;;12.93;9.32;;;20.40;93.60;;;;;;5031671;28;20033;-73
2021/06/26 06:23:15;;;;;;;16.77;9.52;;;20.40;93.40;;;;;;5030138;28;20365;-74
2021/06/26 06:25:40;;;;;;;13.48;9.25;;;20.50;92.90;;;;;;5030017;28;20038;-74
2021/06/26 06:28:06;;;;;;;18.95;9.50;;;20.60;93.10;;;;;;5029952;28;20463;-74
2021/06/26 06:30:35;;;;;;;15.02;10.18;;;20.60;93.20;;;;;;5030298;28;20060;-74
2021/06/26 06:33:02;;;;;;;17.30;9.95;;;20.60;92.80;;;;;;5031502;28;20025;-76
2021/06/26 06:35:28;;;;;;;16.15;10.35;;;20.70;93.00;;;;;;5029706;28;20467;-76
2021/06/26 06:37:54;;;;;;;16.10;10.05;;;20.70;92.30;;;;;;5012543;28;20116;-80
2021/06/26 06:40:21;;;;;;;17.15;10.23;;;20.80;92.00;;;;;;5029813;28;20049;-72
2021/06/26 06:42:47;;;;;;;17.45;10.15;;;20.80;92.00;;;;;;5029885;28;20069;-77
2021/06/26 06:45:13;;;;;;;15.77;10.15;;;20.90;92.30;;;;;;5029547;28;20437;-74
2021/06/26 06:47:40;;;;;;;15.23;9.10;;;20.90;92.30;;;;;;5030885;28;20100;-75
2021/06/26 06:50:08;;;;;;;17.80;9.73;;;21.00;92.30;;;;;;5029316;28;20426;-72
2021/06/26 06:52:34;;;;;;;14.70;9.70;;;21.00;92.00;;;;;;5011833;28;20072;-75
2021/06/26 06:54:59;;;;;;;15.95;9.75;;;21.10;91.80;;;;;;5012005;28;20065;-76
2021/06/26 06:57:25;;;;;;;17.85;10.18;;;21.10;91.60;;;;;;5029129;28;20048;-78
2021/06/26 06:59:54;;;;;;;14.68;9.65;;;21.10;91.60;;;;;;5013996;28;20442;-76
2021/06/26 07:02:20;;;;;;;15.10;9.48;;;21.20;91.40;;;;;;5029564;28;20422;-75
2021/06/26 07:04:46;;;;;;;13.30;8.52;;;21.30;91.30;;;;;;5012123;28;20448;-75
2021/06/26 07:07:13;;;;;;;15.27;9.32;;;21.40;91.20;;;;;;5029244;28;20065;-75
2021/06/26 07:09:38;;;;;;;14.23;7.95;;;21.50;91.20;;;;;;5029393;28;20045;-75
2021/06/26 07:12:05;;;;;;;11.90;8.30;;;21.60;91.00;;;;;;5029248;28;20040;-74
2021/06/26 07:14:31;;;;;;;14.20;8.45;;;21.60;90.80;;;;;;5030696;28;20542;-76
2021/06/26 07:16:56;;;;;;;11.43;7.20;;;21.70;90.30;;;;;;5029440;28;20033;-75
2021/06/26 07:19:22;;;;;;;16.02;8.63;;;21.70;90.20;;;;;;5029164;28;20439;-75
2021/06/26 07:21:48;;;;;;;14.38;9.25;;;21.70;89.00;;;;;;5029273;28;20060;-75
2021/06/26 07:24:13;;;;;;;12.65;8.27;;;21.80;89.10;;;;;;5029296;28;20377;-75
2021/06/26 07:26:39;;;;;;;12.15;8.23;;;21.90;88.80;;;;;;5030739;28;20427;-79
2021/06/26 07:29:05;;;;;;;21.23;9.35;;;21.80;88.60;;;;;;5029062;28;20104;-74
2021/06/26 07:31:32;;;;;;;12.23;7.50;;;21.70;88.40;;;;;;5011140;28;20026;-74
2021/06/26 07:33:58;;;;;;;14.68;6.68;;;21.90;88.90;;;;;;5029210;28;20095;-74
2021/06/26 07:36:23;;;;;;;10.15;6.80;;;22.00;88.50;;;;;;5029082;28;20021;-74
2021/06/26 07:38:49;;;;;;;13.98;7.15;;;22.00;88.40;;;;;;5030486;28;20032;-74
2021/06/26 07:41:15;;;;;;;11.30;7.35;;;22.00;87.90;;;;;;5020910;28;20494;-74
2021/06/26 07:43:41;;;;;;;10.30;6.50;;;22.20;87.50;;;;;;5028960;28;20037;-73
2021/06/26 07:46:07;;;;;;;12.35;6.65;;;22.20;86.40;;;;;;5028559;28;20336;-72
2021/06/26 07:48:33;;;;;;;9.52;6.07;;;22.30;85.70;;;;;;5028740;28;20450;-73
2021/06/26 07:51:00;;;;;;;9.65;6.30;;;22.30;83.50;;;;;;5030375;28;20463;-73
2021/06/26 07:53:26;;;;;;;8.18;5.97;;;22.40;83.60;;;;;;5026197;28;20046;-72
2021/06/26 07:55:53;;;;;;;10.30;6.07;;;22.40;84.20;;;;;;5029077;28;20060;-73
2021/06/26 07:58:27;;;;;;;12.63;6.78;;;22.40;84.20;;;;;;5029423;28;20037;-72
2021/06/26 08:00:55;;;;;;;8.93;6.25;;;22.50;85.10;;;;;;5014747;28;20469;-72
2021/06/26 08:03:21;;;;;;;9.80;6.75;;;22.50;84.90;;;;;;5032217;28;20052;-73
2021/06/26 08:05:47;;;;;;;10.77;6.65;;;22.60;84.80;;;;;;5033993;28;20074;-72
2021/06/26 08:08:13;;;;;;;14.32;6.80;;;22.60;84.10;;;;;;5032532;28;20037;-72
2021/06/26 08:10:40;;;;;;;8.82;6.10;;;22.60;83.60;;;;;;5032440;28;20131;-72
2021/06/26 08:13:06;;;;;;;11.82;6.55;;;22.80;82.90;;;;;;5032436;28;20111;-72
2021/06/26 08:15:36;;;;;;;7.95;5.97;;;23.00;83.10;;;;;;5032778;28;20037;-72
2021/06/26 08:18:03;;;;;;;13.00;6.13;;;23.10;82.00;;;;;;5034048;28;20026;-73
2021/06/26 08:20:28;;;;;;;13.30;6.50;;;23.60;81.80;;;;;;5032575;28;20045;-73
2021/06/26 08:22:54;;;;;;;8.25;5.38;;;23.80;79.80;;;;;;5032619;28;20364;-74
2021/06/26 08:25:20;;;;;;;6.30;5.10;;;23.90;79.80;;;;;;5032473;28;20041;-73
2021/06/26 08:27:45;;;;;;;6.50;4.82;;;24.20;77.80;;;;;;5032137;28;20026;-72
2021/06/26 08:30:12;;;;;;;6.32;4.53;;;24.60;75.50;;;;;;5032250;28;20017;-73
2021/06/26 08:32:37;;;;;;;7.18;4.35;;;24.90;73.50;;;;;;5033741;28;20044;-72
2021/06/26 08:35:03;;;;;;;7.75;3.53;;;25.10;70.40;;;;;;5032307;28;20041;-73
2021/06/26 08:37:29;;;;;;;7.68;4.20;;;25.40;69.20;;;;;;5032015;28;20132;-71
2021/06/26 08:39:54;;;;;;;6.95;4.05;;;25.50;65.40;;;;;;5032443;28;20140;-74
2021/06/26 08:42:20;;;;;;;6.65;4.15;;;25.80;66.30;;;;;;5031832;28;20080;-70
2021/06/26 08:44:57;;;;;;;8.68;4.85;;;26.10;65.60;;;;;;5033594;28;20025;-72
2021/06/26 08:47:23;;;;;;;20.58;11.65;;;26.30;64.70;;;;;;5031911;28;20045;-73
2021/06/26 08:49:49;;;;;;;13.50;9.57;;;26.90;64.20;;;;;;5032002;28;20025;-72
2021/06/26 08:52:14;;;;;;;10.75;6.20;;;27.80;61.10;;;;;;5031289;28;20075;-72
2021/06/26 08:54:40;;;;;;;10.05;6.20;;;28.80;60.90;;;;;;5014009;28;20462;-74
2021/06/26 08:57:06;;;;;;;10.13;6.63;;;29.30;57.30;;;;;;5031458;28;20321;-73
2021/06/26 08:59:31;;;;;;;10.02;6.18;;;29.50;55.50;;;;;;5033453;28;20026;-73
2021/06/26 09:01:57;;;;;;;8.82;5.53;;;30.10;58.70;;;;;;5014582;28;20530;-71
2021/06/26 09:04:23;;;;;;;12.15;5.93;;;30.30;54.10;;;;;;5031334;28;20037;-80
2021/06/26 09:06:59;;;;;;;8.57;6.07;;;30.40;53.10;;;;;;5014034;28;20344;-82
2021/06/26 09:09:37;;;;;;;8.63;5.43;;;31.10;53.80;;;;;;5031708;28;20099;-80
2021/06/26 09:12:08;;;;;;;8.23;4.70;;;30.70;51.50;;;;;;5015050;28;20453;-81
2021/06/26 09:14:35;;;;;;;7.43;4.63;;;30.90;53.00;;;;;;5031996;28;20048;-82
2021/06/26 09:17:02;;;;;;;7.43;4.60;;;30.60;51.20;;;;;;5001626;28;20620;-81
2021/06/26 09:19:29;;;;;;;10.57;6.32;;;30.50;51.40;;;;;;5011589;28;20100;-80
2021/06/26 09:22:15;;;;;;;6.93;4.85;;;30.30;49.30;;;;;;4994094;28;20054;-83
2021/06/26 09:24:42;;;;;;;10.50;6.20;;;29.80;50.40;;;;;;5010315;28;20034;-83
2021/06/26 09:27:09;;;;;;;28.88;20.25;;;29.80;51.90;;;;;;5011157;28;20037;-83
2021/06/26 09:29:35;;;;;;;11.67;5.53;;;29.90;51.80;;;;;;5012167;28;20042;-81
2021/06/26 09:32:05;;;;;;;6.57;5.13;;;29.70;51.80;;;;;;5010967;28;20282;-83
2021/06/26 09:34:45;;;;;;;7.40;5.25;;;29.30;51.60;;;;;;5011041;28;20030;-82
2021/06/26 09:37:18;;;;;;;5.07;3.90;;;28.90;51.40;;;;;;5010934;28;20388;-81
2021/06/26 09:39:45;;;;;;;8.23;5.30;;;29.00;53.60;;;;;;4993630;28;20487;-83
2021/06/26 09:42:23;;;;;;;9.00;5.33;;;29.00;52.40;;;;;;4993057;28;20038;-80
2021/06/26 09:44:53;;;;;;;10.65;5.20;;;29.10;53.30;;;;;;5012501;28;20291;-79
2021/06/26 09:47:38;;;;;;;9.07;5.38;;;29.00;52.70;;;;;;5011396;28;20053;-79
2021/06/26 09:50:11;;;;;;;10.18;5.80;;;29.00;52.70;;;;;;5011129;28;20455;-80
2021/06/26 09:52:41;;;;;;;9.77;5.90;;;28.70;52.10;;;;;;5010960;28;20042;-80
2021/06/26 09:55:27;;;;;;;9.13;6.38;;;28.50;52.10;;;;;;5010791;28;20030;-78
2021/06/26 09:57:58;;;;;;;9.63;5.65;;;27.80;52.00;;;;;;5010636;28;20064;-80
2021/06/26 10:00:26;;;;;;;8.05;5.10;;;27.60;53.00;;;;;;5010363;28;20030;-80
2021/06/26 10:02:53;;;;;;;9.50;5.78;;;28.00;53.40;;;;;;5012379;28;20018;-80
2021/06/26 10:05:20;;;;;;;7.55;4.53;;;28.10;53.30;;;;;;5010793;28;20065;-80
2021/06/26 10:07:47;;;;;;;6.47;5.03;;;27.90;52.60;;;;;;5010508;28;20088;-81
2021/06/26 10:10:14;;;;;;;;;;;28.00;53.10;;;;;;5010735;28;20271;-80
2021/06/26 10:12:40;;;;;;;7.93;4.50;;;28.10;50.90;;;;;;5010667;28;19913;-80
2021/06/26 10:15:08;;;;;;;7.30;4.57;;;27.90;51.30;;;;;;5010865;28;20106;-80
2021/06/26 10:17:34;;;;;;;6.97;4.60;;;27.90;50.70;;;;;;5011855;28;20041;-80
2021/06/26 10:20:02;;;;;;;5.20;4.00;;;27.80;51.00;;;;;;5010367;28;20053;-80
2021/06/26 10:22:28;;;;;;;6.50;4.80;;;27.80;50.90;;;;;;5009430;28;20046;-77
2021/06/26 10:24:55;;;;;;;6.53;4.55;;;27.20;51.10;;;;;;5009897;28;20030;-80
2021/06/26 10:27:22;;;;;;;6.90;4.57;;;27.30;52.30;;;;;;4992873;28;20026;-81
2021/06/26 10:29:49;;;;;;;8.52;4.60;;;27.30;51.70;;;;;;5011540;28;20120;-81
2021/06/26 10:32:18;;;;;;;10.43;7.13;;;27.50;52.50;;;;;;5010055;28;20472;-80
2021/06/26 10:34:46;;;;;;;5.63;4.40;;;27.60;52.00;;;;;;5009983;28;20375;-84
2021/06/26 10:37:21;;;;;;;6.63;4.03;;;27.50;51.80;;;;;;5010101;28;20038;-83
2021/06/26 10:39:48;;;;;;;8.55;3.50;;;27.40;51.20;;;;;;5010297;28;20088;-80
2021/06/26 10:42:18;;;;;;;3.97;2.93;;;27.40;50.50;;;;;;5010074;28;20026;-81
2021/06/26 10:44:53;;;;;;;4.47;2.78;;;27.30;50.90;;;;;;5011652;28;20026;-81
2021/06/26 10:47:33;;;;;;;4.65;3.47;;;27.50;51.10;;;;;;5010264;28;20234;-84
2021/06/26 10:50:30;;;;;;;5.40;3.65;;;27.30;50.50;;;;;;5010281;28;20038;-80
2021/06/26 10:52:58;;;;;;;9.13;3.60;;;27.50;50.80;;;;;;4987447;28;20046;-81
2021/06/26 10:55:34;;;;;;;3.65;3.33;;;27.70;51.10;;;;;;5010115;28;20045;-84
2021/06/26 10:58:01;;;;;;;4.68;3.58;;;27.80;51.20;;;;;;5010703;28;20099;-77
2021/06/26 11:00:45;;;;;;;3.90;3.40;;;27.90;50.40;;;;;;5005219;28;20063;-77
2021/06/26 11:03:23;;;;;;;6.00;3.05;;;27.80;50.40;;;;;;5009650;28;20448;-73
2021/06/26 11:05:49;;;;;;;3.50;2.65;;;27.90;51.50;;;;;;5011794;28;20025;-74
2021/06/26 11:08:21;;;;;;;3.67;2.95;;;27.80;51.00;;;;;;5009888;28;20444;-74
2021/06/26 11:11:01;;;;;;;7.65;3.65;;;27.80;51.40;;;;;;5009558;28;20089;-78
2021/06/26 11:13:29;;;;;;;6.25;3.17;;;27.70;50.50;;;;;;5009609;28;20034;-77
2021/06/26 11:16:05;;;;;;;5.03;3.60;;;27.60;51.20;;;;;;5009793;28;20037;-75
2021/06/26 11:18:31;;;;;;;10.35;3.08;;;27.40;51.50;;;;;;5009490;28;20349;-76
2021/06/26 11:20:58;;;;;;;4.22;3.13;;;27.60;52.30;;;;;;5010830;28;20034;-74
2021/06/26 11:23:25;;;;;;;3.97;2.80;;;27.60;51.50;;;;;;5009670;28;20368;-73
2021/06/26 11:25:50;;;;;;;3.72;2.95;;;27.60;51.70;;;;;;5009734;28;20033;-73
2021/06/26 11:28:17;;;;;;;3.92;3.22;;;27.30;50.60;;;;;;5009283;28;20053;-71
2021/06/26 11:30:58;;;;;;;4.25;3.15;;;27.10;50.70;;;;;;5009594;28;20121;-73
2021/06/26 11:33:31;;;;;;;12.73;4.13;;;27.30;52.60;;;;;;5009357;28;20077;-73
2021/06/26 11:35:57;;;;;;;7.03;3.55;;;27.10;52.60;;;;;;5014668;28;20029;-74
2021/06/26 11:38:23;;;;;;;3.70;3.00;;;27.20;52.70;;;;;;5013381;28;20042;-71
2021/06/26 11:40:51;;;;;;;8.00;3.40;;;27.10;51.80;;;;;;4995988;28;20034;-73
2021/06/26 11:43:16;;;;;;;4.10;3.28;;;27.00;52.30;;;;;;5005315;28;20030;-73
2021/06/26 11:45:46;;;;;;;6.47;3.45;;;27.00;52.10;;;;;;5013161;28;20034;-71
2021/06/26 11:48:14;;;;;;;6.45;5.07;;;27.00;52.50;;;;;;5012844;28;20014;-71
2021/06/26 11:50:56;;;;;;;;;;;27.00;52.30;;;;;;4997641;28;20220;-71
2021/06/26 11:53:26;;;;;;;4.93;3.13;;;26.90;52.90;;;;;;5012279;28;20007;-72
2021/06/26 11:56:03;;;;;;;6.97;2.97;;;26.70;52.70;;;;;;4994729;28;20109;-71
2021/06/26 11:58:46;;;;;;;13.32;7.78;;;26.60;52.90;;;;;;5012867;28;20065;-72
2021/06/26 12:01:29;;;;;;;7.03;3.88;;;26.60;52.90;;;;;;4995259;28;20038;-71
2021/06/26 12:03:55;;;;;;;4.68;3.60;;;26.70;53.20;;;;;;5012572;28;20124;-71
2021/06/26 12:06:21;;;;;;;4.10;3.20;;;26.70;52.20;;;;;;5012350;28;20026;-72
2021/06/26 12:08:55;;;;;;;5.65;3.60;;;26.80;52.80;;;;;;5014207;28;20030;-72
2021/06/26 12:11:35;;;;;;;10.45;6.60;;;27.00;52.40;;;;;;5011945;28;20042;-71
2021/06/26 12:14:03;;;;;;;15.05;7.53;;;27.00;52.70;;;;;;5011399;28;20041;-71
2021/06/26 12:16:35;;;;;;;7.05;4.95;;;26.80;53.90;;;;;;5012716;28;20046;-73
2021/06/26 12:19:07;;;;;;;10.23;7.65;;;27.10;54.10;;;;;;5012643;28;20030;-72
2021/06/26 12:21:41;;;;;;;17.45;8.02;;;27.30;53.60;;;;;;5012543;28;20495;-72
2021/06/26 12:24:08;;;;;;;15.40;7.07;;;27.20;53.30;;;;;;5012406;28;20036;-71
2021/06/26 12:26:34;;;;;;;10.88;6.68;;;27.10;53.20;;;;;;5013926;28;20037;-72
2021/06/26 12:28:59;;;;;;;7.55;5.90;;;26.90;53.10;;;;;;5012355;28;20069;-74
2021/06/26 12:31:25;;;;;;;7.72;5.55;;;27.00;53.50;;;;;;4995066;28;20060;-73
2021/06/26 12:33:59;;;;;;;7.40;5.40;;;27.10;53.40;;;;;;5011565;28;20041;-72
2021/06/26 12:36:25;;;;;;;9.30;4.40;;;26.80;52.80;;;;;;5012148;28;20069;-72
2021/06/26 12:38:51;;;;;;;7.03;5.00;;;26.80;53.70;;;;;;5013430;28;20205;-72
2021/06/26 12:41:21;;;;;;;7.90;5.22;;;26.70;53.20;;;;;;5012044;28;20104;-70
2021/06/26 12:43:47;;;;;;;6.75;4.45;;;26.60;54.00;;;;;;5012049;28;20025;-72